Portada
METAR-TAF:

METAR-TAF

Aeropuertos :

Gran Canaria, España

Aeropuerto de Gran Canaria

latitud: 27-56N, longitud: 015-23W, altitud: 23 m

Observación

El informe se hizo hace 25 minutos, a las 03:00 UTC
Viento 14 kt del norte
Temperatura 20°C
Humedad 78%
Presión 1019 hPa
Visibilidad 10 km o más
Nubes dispersas a una altura de 2100 ft

METAR: GCLP 290300Z 36014KT 9999 SCT021 20/16 Q1019 NOSIG

Hora: 03:25 (03:25 UTC)

Pronóstico

El informe se hizo hace 1 hora y 25 minutos, a las 02:00 UTC
Pronóstico válido del 29 a las 03 UTC al 30 a las 03 UTC
Viento 15 kt del norte
Visibilidad 10 km o más
Nubes dispersas a una altura de 2000 ft

TAF: GCLP 290200Z 2903/3003 01015KT 9999 SCT020 TX25/2913Z TN18/2906Z

Observaciones y pronósticos meteorológicos de más de 4000 aeropuertos (mensajes METAR y TAF).

Los puntos amarillos y rojos representan las estaciones disponibles.

Ponga el ratón en el punto deseado para ver el nombre de la estación.

Haga clic para ver las observaciones y los pronósticos meteorológicos.

Para cambiar el mapa : haga clic en los botones verdes con una cruz de color negro para hacer un zoom, en el botón verde con un guión para alejar o en las flechas verdes para mapas adyacentes.


METAR-TAF: